Time;durP1;ratioP1;P1;durP2;ratioP2;P2;SDS_P1;SDS_P2;PMS_P1;PMS_P2;Temp;Humidity;BMP_temperature;BMP_pressure;BME280_temperature;BME280_humidity;BME280_pressure;Samples;Min_cycle;Max_cycle;Signal;HPM_P1;HPM_P2
2022/01/14 00:03:42;;;;;;;26.27;11.65;;;;;;;4.71;96.74;103316.91;15280924;19;20015;-68
2022/01/14 00:08:43;;;;;;;22.20;9.60;;;;;;;4.70;97.19;103310.81;15275598;19;20014;-67
2022/01/14 00:18:47;;;;;;;22.45;7.90;;;;;;;4.64;97.26;103297.34;15277250;19;20095;-67
2022/01/14 00:23:52;;;;;;;23.92;8.82;;;;;;;4.58;97.79;103295.16;15276236;19;20073;-67
2022/01/14 00:34:15;;;;;;;22.77;8.77;;;;;;;4.52;97.91;103292.06;15276950;19;20368;-67
2022/01/14 00:39:17;;;;;;;22.83;8.43;;;;;;;4.52;97.67;103288.53;15274624;19;20364;-67
2022/01/14 00:44:19;;;;;;;23.23;8.82;;;;;;;4.58;97.32;103289.06;15276559;19;20010;-67
2022/01/14 00:49:21;;;;;;;24.13;9.55;;;;;;;4.52;97.54;103291.13;15274542;19;20017;-67
2022/01/14 00:54:25;;;;;;;24.73;9.25;;;;;;;4.53;97.03;103290.34;15276409;19;20011;-67
2022/01/14 00:59:27;;;;;;;15.15;6.95;;;;;;;4.57;95.58;103280.34;15273689;19;20023;-67
2022/01/14 01:04:34;;;;;;;19.33;7.55;;;;;;;4.53;95.82;103273.09;15277448;19;20822;-68
2022/01/14 01:09:38;;;;;;;16.20;6.90;;;;;;;4.61;94.96;103271.16;15273664;19;20010;-67
2022/01/14 01:14:50;;;;;;;21.40;8.48;;;;;;;4.52;95.43;103265.19;15276038;19;20495;-67
2022/01/14 01:19:52;;;;;;;16.50;8.25;;;;;;;4.62;94.89;103265.16;15273732;19;20018;-67
2022/01/14 01:24:54;;;;;;;30.13;8.48;;;;;;;4.53;95.51;103267.00;15275952;19;20021;-66
2022/01/14 01:30:12;;;;;;;19.48;8.27;;;;;;;4.51;95.52;103272.06;15272016;19;20094;-67
2022/01/14 01:35:15;;;;;;;17.67;7.75;;;;;;;4.57;95.31;103263.88;15169019;19;2005006;-68
2022/01/14 01:40:19;;;;;;;21.00;8.35;;;;;;;4.50;95.76;103258.97;15272519;19;20534;-66
2022/01/14 01:45:24;;;;;;;16.65;7.10;;;;;;;4.47;95.81;103266.50;15273946;19;20039;-67
2022/01/14 01:50:29;;;;;;;19.88;7.97;;;;;;;4.48;95.80;103264.03;15270555;19;20452;-67
2022/01/14 01:55:31;;;;;;;20.40;7.47;;;;;;;4.51;95.82;103258.19;15273038;19;20280;-68
2022/01/14 02:00:33;;;;;;;20.27;7.68;;;;;;;4.54;95.64;103248.97;15270002;19;20082;-65
2022/01/14 02:05:35;;;;;;;17.83;7.35;;;;;;;4.57;95.61;103245.72;15277658;19;20022;-68
2022/01/14 02:10:38;;;;;;;21.88;8.57;;;;;;;4.59;95.73;103238.94;15269109;19;20086;-67
2022/01/14 02:15:47;;;;;;;16.70;7.70;;;;;;;4.56;95.61;103249.09;15270887;19;20402;-67
2022/01/14 02:26:09;;;;;;;;;;;;;;;4.52;95.92;103231.44;15271361;19;20026;-68
2022/01/14 02:31:11;;;;;;;20.88;8.50;;;;;;;4.53;95.97;103230.66;15268747;19;19919;-68
2022/01/14 02:36:13;;;;;;;18.98;9.05;;;;;;;4.49;96.20;103231.19;15270981;19;20023;-68
2022/01/14 02:41:15;;;;;;;24.25;9.10;;;;;;;4.60;96.09;103225.19;15266889;19;20092;-67
2022/01/14 02:46:17;;;;;;;24.08;8.98;;;;;;;4.58;95.75;103221.59;15266594;19;20028;-67
2022/01/14 02:51:19;;;;;;;32.13;8.90;;;;;;;4.55;95.88;103208.38;15263915;19;20006;-67
2022/01/14 02:56:21;;;;;;;24.98;8.73;;;;;;;4.61;95.95;103201.06;15266998;19;20081;-68
2022/01/14 03:01:25;;;;;;;18.95;8.27;;;;;;;4.58;95.89;103206.91;15266604;19;20583;-66
2022/01/14 03:06:28;;;;;;;22.08;8.77;;;;;;;4.63;96.35;103203.78;15266971;19;20014;-67
2022/01/14 03:11:53;;;;;;;20.63;9.55;;;;;;;4.63;96.45;103199.50;15268714;19;20085;-67
2022/01/14 03:16:58;;;;;;;21.05;9.07;;;;;;;4.54;96.33;103190.97;15265096;19;20010;-67
2022/01/14 03:22:35;;;;;;;24.92;9.55;;;;;;;4.49;97.34;103207.84;15267725;19;20022;-68
2022/01/14 03:27:27;;;;;;;19.98;8.52;;;;;;;4.52;97.26;103203.84;15265701;19;20022;-67
2022/01/14 03:32:29;;;;;;;23.35;8.63;;;;;;;4.50;97.13;103197.59;15266568;19;20011;-68
2022/01/14 03:37:31;;;;;;;19.10;8.95;;;;;;;4.56;97.18;103198.13;15266189;19;20027;-68
2022/01/14 03:42:33;;;;;;;23.73;9.55;;;;;;;4.54;97.37;103170.22;15266303;19;20020;-67
2022/01/14 03:47:34;;;;;;;23.08;9.02;;;;;;;4.56;97.09;103187.72;15264211;19;20011;-67
2022/01/14 03:52:36;;;;;;;29.55;9.38;;;;;;;4.60;97.64;103173.31;15264858;19;20006;-68
2022/01/14 03:57:38;;;;;;;21.98;9.30;;;;;;;4.49;97.71;103161.16;15266047;19;20546;-67
2022/01/14 04:02:39;;;;;;;24.20;9.85;;;;;;;4.52;97.95;103161.38;15280491;19;20090;-68
2022/01/14 04:07:41;;;;;;;17.98;8.80;;;;;;;4.47;98.21;103144.56;15277651;19;20376;-68
2022/01/14 04:13:05;;;;;;;21.85;8.85;;;;;;;4.53;98.23;103137.25;15278148;19;20507;-67
2022/01/14 04:18:20;;;;;;;26.98;9.25;;;;;;;4.50;98.16;103132.72;15278695;19;20018;-68
2022/01/14 04:23:23;;;;;;;24.77;9.15;;;;;;;4.40;98.45;103115.53;15278750;19;20018;-67
2022/01/14 04:28:30;;;;;;;23.13;8.75;;;;;;;4.46;98.37;103103.81;15276167;19;20031;-68
2022/01/14 04:33:33;;;;;;;24.30;9.02;;;;;;;4.48;98.20;103099.69;15278587;19;20010;-67
2022/01/14 04:38:35;;;;;;;24.73;10.18;;;;;;;4.42;98.30;103085.41;15276011;19;20066;-67
2022/01/14 04:43:37;;;;;;;20.77;8.85;;;;;;;4.38;98.34;103064.31;15277169;19;20353;-67
2022/01/14 04:48:39;;;;;;;29.75;9.55;;;;;;;4.39;97.97;103069.63;15275139;19;20015;-68
2022/01/14 04:53:40;;;;;;;25.52;8.38;;;;;;;4.30;98.15;103058.53;15276874;19;20086;-67
2022/01/14 04:58:42;;;;;;;21.08;8.48;;;;;;;4.27;98.04;103053.09;15274089;19;20546;-68
2022/01/14 05:03:44;;;;;;;20.98;8.20;;;;;;;4.22;98.70;103054.44;15277441;19;20077;-68
2022/01/14 05:08:46;;;;;;;22.70;9.48;;;;;;;4.33;98.46;103061.34;15274001;19;20014;-67
2022/01/14 05:13:48;;;;;;;23.88;8.70;;;;;;;4.33;98.31;103079.50;15274643;19;20110;-67
2022/01/14 05:18:50;;;;;;;22.13;8.77;;;;;;;4.38;98.06;103083.41;15272621;19;20018;-67
2022/01/14 05:23:52;;;;;;;24.75;9.15;;;;;;;4.44;97.68;103088.13;15272985;19;20078;-68
2022/01/14 05:28:54;;;;;;;21.02;9.60;;;;;;;4.49;96.98;103101.47;15272448;19;20010;-67
2022/01/14 05:33:55;;;;;;;21.08;9.88;;;;;;;4.48;96.63;103104.88;15272996;19;20035;-68
2022/01/14 05:38:57;;;;;;;29.40;10.50;;;;;;;4.49;95.94;103102.41;15271516;19;20094;-68
2022/01/14 05:43:59;;;;;;;30.40;11.68;;;;;;;4.49;95.98;103102.41;15272770;19;20014;-67
2022/01/14 05:49:01;;;;;;;22.17;10.63;;;;;;;4.53;95.93;103104.41;15270276;19;20015;-67
2022/01/14 05:54:03;;;;;;;25.63;10.57;;;;;;;4.52;95.88;103091.31;15272106;19;20483;-69
2022/01/14 05:59:05;;;;;;;25.20;10.63;;;;;;;4.53;95.90;103103.53;15271766;19;20023;-68
2022/01/14 06:04:07;;;;;;;26.70;10.60;;;;;;;4.55;95.92;103107.16;15274126;19;20381;-67
2022/01/14 06:09:08;;;;;;;24.40;10.55;;;;;;;4.58;96.33;103107.41;15269063;19;20082;-66
2022/01/14 06:14:10;;;;;;;21.63;10.55;;;;;;;4.56;96.46;103094.31;15270326;19;20090;-68
2022/01/14 06:19:12;;;;;;;22.13;9.63;;;;;;;4.60;96.06;103082.47;15269459;19;20038;-66
2022/01/14 06:24:13;;;;;;;27.45;10.48;;;;;;;4.67;96.15;103087.38;15267185;19;20021;-66
2022/01/14 06:29:15;;;;;;;19.63;10.48;;;;;;;4.65;96.11;103088.91;15268129;19;20018;-67
2022/01/14 06:34:17;;;;;;;22.77;10.40;;;;;;;4.66;96.48;103101.13;15269240;19;20102;-66
2022/01/14 06:39:19;;;;;;;30.70;10.02;;;;;;;4.71;96.26;103102.38;15267218;19;20515;-66
2022/01/14 06:44:20;;;;;;;25.50;9.82;;;;;;;4.71;96.33;103104.97;15267857;19;20019;-66
2022/01/14 06:49:22;;;;;;;26.10;10.98;;;;;;;4.63;97.14;103098.28;15264717;19;20101;-69
2022/01/14 06:54:24;;;;;;;25.52;11.88;;;;;;;4.65;97.12;103096.69;15271115;19;20049;-67
2022/01/14 06:59:25;;;;;;;24.80;12.15;;;;;;;4.69;96.81;103095.28;15272570;19;20786;-68
2022/01/14 07:04:27;;;;;;;27.73;11.00;;;;;;;4.71;96.77;103091.09;15277776;19;20011;-68
2022/01/14 07:09:30;;;;;;;26.42;10.43;;;;;;;4.78;96.53;103107.25;15265720;19;20078;-69
2022/01/14 07:14:32;;;;;;;31.80;11.25;;;;;;;4.76;96.77;103106.25;15267142;19;20598;-67
2022/01/14 07:19:34;;;;;;;22.63;11.10;;;;;;;4.80;96.45;103111.66;15267334;19;20021;-68
2022/01/14 07:24:36;;;;;;;25.52;10.30;;;;;;;4.75;96.83;103117.41;15267306;19;20018;-69
2022/01/14 07:29:38;;;;;;;21.98;10.18;;;;;;;4.74;97.30;103118.22;15264384;19;20090;-67
2022/01/14 07:34:40;;;;;;;30.67;10.35;;;;;;;4.88;96.63;103124.47;15274733;19;20389;-67
2022/01/14 07:39:42;;;;;;;23.60;10.77;;;;;;;4.80;97.05;103132.44;15250722;19;20067;-66
2022/01/14 07:44:44;;;;;;;24.98;10.98;;;;;;;4.85;97.38;103138.88;15244464;19;20010;-68
2022/01/14 07:49:46;;;;;;;22.50;10.02;;;;;;;4.90;96.80;103140.16;15246195;19;20009;-70
2022/01/14 07:54:48;;;;;;;26.63;11.00;;;;;;;4.93;96.70;103143.88;15246459;19;20017;-68
2022/01/14 07:59:50;;;;;;;23.13;9.68;;;;;;;4.91;96.97;103149.78;15280883;19;20497;-68
2022/01/14 08:04:51;;;;;;;24.75;11.18;;;;;;;4.88;97.12;103139.13;15280275;19;20797;-68
2022/01/14 08:09:53;;;;;;;22.60;10.18;;;;;;;4.93;97.17;103138.69;15273313;19;20078;-66
2022/01/14 08:14:57;;;;;;;25.88;9.63;;;;;;;4.97;97.15;103139.88;15277335;19;20081;-66
2022/01/14 08:19:59;;;;;;;26.55;9.70;;;;;;;4.96;97.21;103138.03;15274338;19;20011;-66
2022/01/14 08:25:02;;;;;;;24.60;10.05;;;;;;;4.99;97.38;103148.66;15278904;19;20082;-66
2022/01/14 08:30:05;;;;;;;24.17;10.15;;;;;;;5.01;97.38;103152.28;15273616;19;20010;-66
2022/01/14 08:35:07;;;;;;;28.08;9.93;;;;;;;4.99;97.44;103145.16;15284696;19;20011;-66
2022/01/14 08:40:10;;;;;;;24.45;10.23;;;;;;;5.08;97.20;103146.78;15271779;19;20014;-67
2022/01/14 08:45:14;;;;;;;21.65;9.35;;;;;;;5.16;96.80;103147.38;15274776;19;20082;-66
2022/01/14 08:50:16;;;;;;;24.55;9.18;;;;;;;5.20;96.95;103152.00;15272132;19;20082;-66
2022/01/14 08:55:19;;;;;;;21.55;9.60;;;;;;;5.21;96.79;103168.50;15274037;19;20035;-66
2022/01/14 09:00:23;;;;;;;21.50;8.25;;;;;;;5.14;97.09;103173.22;15271217;19;20081;-65
2022/01/14 09:05:25;;;;;;;17.15;8.13;;;;;;;5.12;97.28;103164.41;15273413;19;20007;-67
2022/01/14 09:10:27;;;;;;;23.75;9.75;;;;;;;5.20;97.00;103161.50;15269431;19;20073;-66
2022/01/14 09:15:28;;;;;;;23.23;9.07;;;;;;;5.14;97.39;103155.03;15272483;19;20035;-67
2022/01/14 09:20:30;;;;;;;22.90;9.02;;;;;;;5.21;97.38;103166.81;15269771;19;20039;-67
2022/01/14 09:25:32;;;;;;;22.15;9.77;;;;;;;5.30;97.06;103177.03;15274986;19;20074;-66
2022/01/14 09:30:34;;;;;;;26.35;9.40;;;;;;;5.36;96.83;103193.06;15270041;19;20018;-67
2022/01/14 09:35:37;;;;;;;24.77;9.52;;;;;;;5.34;97.06;103201.53;15271680;19;20019;-67
2022/01/14 09:40:43;;;;;;;22.10;9.20;;;;;;;5.37;97.19;103200.06;15269667;19;20031;-66
2022/01/14 09:45:44;;;;;;;22.55;9.93;;;;;;;5.41;96.94;103202.13;15256735;19;20029;-68
2022/01/14 09:50:46;;;;;;;25.92;9.95;;;;;;;5.43;97.48;103203.13;15248256;19;20014;-67
2022/01/14 09:55:48;;;;;;;27.80;9.35;;;;;;;5.48;96.92;103198.31;15256016;19;20010;-67
2022/01/14 10:00:50;;;;;;;34.60;9.73;;;;;;;5.43;97.47;103210.91;15261321;19;20486;-65
2022/01/14 10:05:56;;;;;;;21.33;9.25;;;;;;;5.44;97.17;103207.53;15269163;19;20011;-66
2022/01/14 10:11:01;;;;;;;21.65;8.73;;;;;;;5.49;97.47;103201.03;15267898;19;20554;-67
2022/01/14 10:16:06;;;;;;;23.60;8.75;;;;;;;5.54;97.33;103198.78;15270156;19;20018;-67
2022/01/14 10:21:08;;;;;;;22.92;8.82;;;;;;;5.57;97.56;103209.41;15265870;19;20021;-67
2022/01/14 10:26:12;;;;;;;20.65;7.32;;;;;;;5.55;96.92;103225.66;15272840;19;20018;-68
2022/01/14 10:31:14;;;;;;;22.05;8.13;;;;;;;5.65;97.15;103217.78;15267641;19;20546;-67
2022/01/14 10:36:24;;;;;;;20.85;7.82;;;;;;;5.64;97.60;103215.97;15268807;19;20427;-67
2022/01/14 10:41:28;;;;;;;22.42;7.82;;;;;;;5.65;97.46;103203.09;15275735;19;20031;-67
2022/01/14 10:46:30;;;;;;;19.15;6.65;;;;;;;5.69;97.44;103209.44;15264478;19;20094;-67
2022/01/14 10:51:31;;;;;;;22.35;7.18;;;;;;;5.75;97.09;103206.38;15264260;19;20022;-68
2022/01/14 10:56:33;;;;;;;15.48;6.10;;;;;;;5.74;97.43;103212.38;15265955;19;20523;-67
2022/01/14 11:01:36;;;;;;;16.80;6.43;;;;;;;5.88;96.74;103205.63;15270038;19;20018;-65
2022/01/14 11:06:41;;;;;;;14.43;5.70;;;;;;;5.85;97.15;103201.06;15273011;19;20023;-67
2022/01/14 11:11:49;;;;;;;14.95;5.90;;;;;;;5.83;97.56;103192.28;15292600;19;20086;-66
2022/01/14 11:16:52;;;;;;;15.45;6.68;;;;;;;5.87;97.49;103198.59;15296281;19;20018;-67
2022/01/14 11:27:17;;;;;;;16.38;6.95;;;;;;;5.94;97.00;103200.88;15297074;19;20014;-67
2022/01/14 11:32:19;;;;;;;17.48;5.38;;;;;;;5.94;97.65;103206.06;15294162;19;20035;-68
2022/01/14 11:37:29;;;;;;;18.40;6.07;;;;;;;5.93;97.47;103199.03;15293833;19;20030;-68
2022/01/14 11:42:40;;;;;;;18.15;6.47;;;;;;;5.95;98.05;103215.69;15294118;19;20018;-68
2022/01/14 11:47:44;;;;;;;13.82;5.78;;;;;;;5.96;97.90;103217.47;15292682;19;20113;-67
2022/01/14 11:52:48;;;;;;;19.38;5.78;;;;;;;5.98;98.74;103213.34;15294530;19;20031;-67
2022/01/14 11:58:09;;;;;;;18.88;6.22;;;;;;;5.97;98.45;103222.81;15294383;19;20022;-68
2022/01/14 12:03:14;;;;;;;21.42;6.35;;;;;;;6.01;99.19;103208.38;15293210;19;20010;-68
2022/01/14 12:08:21;;;;;;;11.63;5.50;;;;;;;6.00;99.38;103207.47;15291658;19;20021;-67
2022/01/14 12:13:27;;;;;;;16.15;6.10;;;;;;;5.96;99.73;103214.88;15292069;19;20021;-68
2022/01/14 12:18:56;;;;;;;12.32;5.05;;;;;;;5.97;99.66;103195.94;15283149;19;20794;-67
2022/01/14 12:23:59;;;;;;;15.70;4.97;;;;;;;5.97;100.00;103193.31;15276763;19;20014;-68
2022/01/14 12:29:11;;;;;;;16.85;5.43;;;;;;;5.99;100.00;103178.72;15274971;19;20018;-67
2022/01/14 12:34:14;;;;;;;13.80;5.57;;;;;;;5.93;100.00;103191.25;15276850;19;20846;-67
2022/01/14 12:39:18;;;;;;;17.75;5.32;;;;;;;5.96;100.00;103181.06;15279734;19;20773;-67
2022/01/14 12:44:23;;;;;;;16.13;5.22;;;;;;;5.81;100.00;103179.16;15276384;19;20031;-68
2022/01/14 12:49:29;;;;;;;17.85;5.40;;;;;;;5.88;100.00;103180.50;15278724;19;20019;-68
2022/01/14 12:54:36;;;;;;;17.98;5.30;;;;;;;5.91;100.00;103182.44;15275417;19;20023;-67
2022/01/14 12:59:40;;;;;;;15.63;4.97;;;;;;;6.00;100.00;103170.16;15273688;19;20089;-67
2022/01/14 13:04:42;;;;;;;15.85;4.82;;;;;;;6.03;100.00;103165.16;15274480;19;20015;-66
2022/01/14 13:09:44;;;;;;;20.10;5.45;;;;;;;5.95;100.00;103161.06;15274124;19;20114;-69
2022/01/14 13:15:10;;;;;;;19.80;5.38;;;;;;;5.97;100.00;103170.81;15274272;19;20018;-67
2022/01/14 13:20:12;;;;;;;16.52;5.03;;;;;;;5.97;100.00;103180.31;15271052;19;20006;-69
2022/01/14 13:25:21;;;;;;;21.30;5.35;;;;;;;5.96;100.00;103179.41;15271680;19;20010;-68
2022/01/14 13:30:25;;;;;;;15.45;5.00;;;;;;;5.97;100.00;103169.91;15256251;19;20112;-69
2022/01/14 13:35:31;;;;;;;16.48;4.78;;;;;;;5.92;100.00;103177.34;15260541;19;20010;-67
2022/01/14 13:40:41;;;;;;;15.45;5.28;;;;;;;5.94;100.00;103178.34;15260265;19;20031;-68
2022/01/14 13:45:47;;;;;;;16.38;4.97;;;;;;;5.93;100.00;103170.44;15271761;19;20911;-69
2022/01/14 13:50:55;;;;;;;14.27;4.63;;;;;;;5.94;100.00;103169.66;15270406;19;20010;-68
2022/01/14 13:56:11;;;;;;;20.80;5.60;;;;;;;5.90;100.00;103178.94;15271809;19;20035;-67
2022/01/14 14:01:16;;;;;;;19.17;5.43;;;;;;;5.96;100.00;103178.47;15271194;19;20032;-66
2022/01/14 14:06:44;;;;;;;21.65;6.75;;;;;;;5.88;100.00;103170.09;15273970;19;20010;-68
2022/01/14 14:12:12;;;;;;;14.18;4.72;;;;;;;5.90;100.00;103172.81;15262654;19;20046;-68
2022/01/14 14:17:07;;;;;;;19.98;5.30;;;;;;;5.94;100.00;103172.25;15251860;19;20387;-69
2022/01/14 14:22:18;;;;;;;16.08;4.68;;;;;;;5.93;100.00;103176.56;15264934;19;20014;-68
2022/01/14 14:27:20;;;;;;;14.57;5.28;;;;;;;5.89;100.00;103173.63;15267728;19;20490;-68
2022/01/14 14:32:29;;;;;;;29.63;5.95;;;;;;;5.86;100.00;103176.00;15271980;19;20022;-69
2022/01/14 14:37:36;;;;;;;16.95;5.55;;;;;;;5.86;100.00;103179.50;15272031;19;20478;-68
2022/01/14 14:42:37;;;;;;;20.55;5.88;;;;;;;5.89;100.00;103176.22;15268278;19;20086;-69
2022/01/14 14:47:40;;;;;;;18.98;5.50;;;;;;;5.92;100.00;103166.06;15158328;19;20086;-69
2022/01/14 14:52:41;;;;;;;13.30;4.78;;;;;;;5.87;100.00;103172.59;15262360;19;20014;-69
2022/01/14 14:57:43;;;;;;;15.27;5.63;;;;;;;5.89;100.00;103160.63;15262284;19;20019;-69
2022/01/14 15:02:46;;;;;;;16.42;6.03;;;;;;;5.82;100.00;103154.97;15272734;19;20574;-69
2022/01/14 15:07:49;;;;;;;15.93;5.70;;;;;;;5.81;100.00;103153.16;15271587;19;20038;-69
2022/01/14 15:12:51;;;;;;;20.40;6.20;;;;;;;5.81;100.00;103157.44;15265736;19;20062;-69
2022/01/14 15:23:10;;;;;;;12.82;5.38;;;;;;;5.97;100.00;103149.09;15265572;19;20070;-67
2022/01/14 15:28:13;;;;;;;13.88;5.57;;;;;;;5.95;100.00;103150.69;15270270;19;20038;-68
2022/01/14 15:33:14;;;;;;;12.98;5.57;;;;;;;5.91;100.00;103144.31;15265649;19;20082;-68
2022/01/14 15:38:16;;;;;;;16.40;6.07;;;;;;;5.92;100.00;103140.03;15262982;19;20510;-68
2022/01/14 15:43:28;;;;;;;16.23;5.75;;;;;;;5.87;100.00;103142.31;15266046;19;20026;-68
2022/01/14 15:48:31;;;;;;;13.57;5.82;;;;;;;5.91;100.00;103138.22;15262473;19;20007;-68
2022/01/14 15:53:33;;;;;;;17.58;6.40;;;;;;;5.95;100.00;103150.69;15268124;19;20550;-67
2022/01/14 15:58:35;;;;;;;13.35;6.15;;;;;;;5.91;100.00;103136.53;15238496;19;20044;-68
2022/01/14 16:03:37;;;;;;;20.90;6.38;;;;;;;5.84;100.00;103142.09;15256506;19;20444;-69
2022/01/14 16:08:39;;;;;;;18.17;10.07;;;;;;;5.83;100.00;103142.88;15264094;19;20126;-69
2022/01/14 16:13:42;;;;;;;23.58;10.23;;;;;;;5.84;100.00;103142.97;15274500;19;20013;-68
2022/01/14 16:18:44;;;;;;;31.35;10.60;;;;;;;5.88;100.00;103138.91;15275574;19;20021;-68
2022/01/14 16:23:45;;;;;;;18.42;8.38;;;;;;;5.87;100.00;103143.97;15276835;19;20078;-68
2022/01/14 16:28:47;;;;;;;13.95;6.38;;;;;;;5.92;100.00;103142.66;15279638;19;20018;-67
2022/01/14 16:33:49;;;;;;;15.15;7.38;;;;;;;5.97;100.00;103146.50;15278220;19;20033;-68
2022/01/14 16:38:52;;;;;;;23.88;12.40;;;;;;;5.88;100.00;103148.41;15274677;19;20018;-68
2022/01/14 16:43:57;;;;;;;28.33;10.98;;;;;;;5.89;100.00;103145.91;15276161;19;20554;-67
2022/01/14 16:48:59;;;;;;;16.23;8.85;;;;;;;5.92;100.00;103147.84;15279259;19;20607;-67
2022/01/14 16:54:01;;;;;;;16.20;7.25;;;;;;;5.91;100.00;103138.22;15269778;19;20087;-68
2022/01/14 16:59:03;;;;;;;20.70;10.93;;;;;;;5.89;100.00;103138.13;15274048;19;20014;-67
2022/01/14 17:04:05;;;;;;;19.98;11.43;;;;;;;5.92;100.00;103132.25;15272317;19;20372;-68
2022/01/14 17:09:07;;;;;;;38.33;21.67;;;;;;;5.99;100.00;103137.13;15271994;19;20031;-67
2022/01/14 17:14:09;;;;;;;20.45;10.25;;;;;;;5.90;100.00;103147.75;15271714;19;20074;-68
2022/01/14 17:19:10;;;;;;;16.70;8.10;;;;;;;5.93;100.00;103155.75;15272879;19;20028;-69
2022/01/14 17:24:12;;;;;;;18.45;7.45;;;;;;;5.94;100.00;103152.34;15272525;19;20014;-68
2022/01/14 17:29:14;;;;;;;16.85;7.15;;;;;;;6.02;100.00;103142.56;15270399;19;20035;-67
2022/01/14 17:34:17;;;;;;;12.60;5.22;;;;;;;5.90;100.00;103137.34;15273798;19;20415;-68
2022/01/14 17:39:20;;;;;;;14.02;5.93;;;;;;;5.88;100.00;103148.41;15256276;19;20522;-67
2022/01/14 17:44:22;;;;;;;14.98;5.75;;;;;;;5.95;100.00;103151.56;15278173;19;20018;-67
2022/01/14 17:49:24;;;;;;;12.70;5.65;;;;;;;5.93;100.00;103149.63;15273943;19;20510;-68
2022/01/14 17:54:31;;;;;;;15.60;5.70;;;;;;;5.93;100.00;103147.03;15270295;19;20011;-68
2022/01/14 17:59:32;;;;;;;20.17;9.18;;;;;;;5.98;100.00;103149.22;15273533;19;20070;-68
2022/01/14 18:04:34;;;;;;;28.42;15.55;;;;;;;5.96;100.00;103132.59;15270943;19;20029;-67
2022/01/14 18:09:36;;;;;;;17.02;7.82;;;;;;;5.96;100.00;103136.84;15268833;19;20086;-68
2022/01/14 18:14:38;;;;;;;19.73;10.75;;;;;;;5.94;100.00;103138.44;15275673;19;20014;-69
2022/01/14 18:19:40;;;;;;;11.63;5.75;;;;;;;5.88;100.00;103145.81;15268788;19;20365;-69
2022/01/14 18:24:45;;;;;;;12.00;5.43;;;;;;;5.83;100.00;103151.56;15276297;19;20014;-69
2022/01/14 18:29:47;;;;;;;10.88;5.00;;;;;;;5.89;100.00;103156.31;15269123;19;20010;-69
2022/01/14 18:34:49;;;;;;;12.23;4.68;;;;;;;5.83;100.00;103156.75;15274290;19;20416;-69
2022/01/14 18:39:51;;;;;;;11.82;4.28;;;;;;;5.91;100.00;103156.44;15271191;19;20015;-69
2022/01/14 18:44:52;;;;;;;13.27;5.93;;;;;;;5.87;100.00;103134.50;15270141;19;20010;-68
2022/01/14 18:49:54;;;;;;;9.70;4.40;;;;;;;5.81;100.00;103163.56;15269529;19;20029;-68
2022/01/14 18:54:56;;;;;;;10.15;4.28;;;;;;;5.82;100.00;103169.66;15268748;19;20078;-69
2022/01/14 18:59:57;;;;;;;11.35;5.35;;;;;;;5.82;100.00;103154.97;15270266;19;20566;-69
2022/01/14 19:05:04;;;;;;;11.45;4.38;;;;;;;5.80;100.00;103166.03;15272081;19;20014;-69
2022/01/14 19:10:07;;;;;;;28.38;10.85;;;;;;;5.75;100.00;103160.50;15264898;19;20086;-69
2022/01/14 19:15:09;;;;;;;17.08;7.70;;;;;;;5.70;100.00;103169.63;15272411;19;20027;-68
2022/01/14 19:20:13;;;;;;;16.08;7.38;;;;;;;5.70;100.00;103158.34;15268070;19;20036;-68
2022/01/14 19:25:14;;;;;;;11.75;4.72;;;;;;;5.68;100.00;103155.63;15272578;19;20074;-68
2022/01/14 19:30:18;;;;;;;14.55;8.52;;;;;;;5.64;100.00;103158.78;15271031;19;20027;-69
2022/01/14 19:35:22;;;;;;;19.35;7.82;;;;;;;5.61;100.00;103155.94;15287940;19;20031;-69
2022/01/14 19:40:23;;;;;;;13.40;6.65;;;;;;;5.65;100.00;103176.19;15270310;19;20606;-69
2022/01/14 19:45:27;;;;;;;16.67;11.20;;;;;;;5.68;100.00;103175.53;15279825;19;20093;-68
2022/01/14 19:50:28;;;;;;;12.38;5.80;;;;;;;5.61;100.00;103153.34;15276871;19;20361;-68
2022/01/14 19:55:30;;;;;;;17.05;8.07;;;;;;;5.59;100.00;103163.63;15279752;19;20585;-68
2022/01/14 20:00:33;;;;;;;13.95;5.70;;;;;;;5.61;100.00;103166.34;15276179;19;20011;-67
2022/01/14 20:05:36;;;;;;;11.63;5.03;;;;;;;5.61;100.00;103158.53;15281120;19;20014;-68
2022/01/14 20:10:39;;;;;;;11.38;5.30;;;;;;;5.58;100.00;103154.00;15283213;19;20038;-69
2022/01/14 20:15:41;;;;;;;17.27;5.97;;;;;;;5.58;100.00;103158.31;15279502;19;20082;-69
2022/01/14 20:20:42;;;;;;;14.30;5.55;;;;;;;5.62;100.00;103165.56;15283698;19;20066;-69
2022/01/14 20:25:44;;;;;;;14.38;6.15;;;;;;;5.64;100.00;103158.78;15279175;19;20078;-69
2022/01/14 20:30:47;;;;;;;16.42;5.72;;;;;;;5.64;100.00;103153.56;15274915;19;20445;-69
2022/01/14 20:35:49;;;;;;;12.07;5.60;;;;;;;5.63;100.00;103146.56;15279310;19;20028;-69
2022/01/14 20:40:52;;;;;;;9.85;4.72;;;;;;;5.58;100.00;103154.00;15279152;19;20007;-69
2022/01/14 20:45:54;;;;;;;11.32;4.82;;;;;;;5.53;100.00;103154.47;15277490;19;20494;-69
2022/01/14 20:50:56;;;;;;;37.00;17.35;;;;;;;5.52;100.00;103163.06;15278530;19;20043;-69
2022/01/14 20:55:58;;;;;;;30.98;15.63;;;;;;;5.51;100.00;103151.78;15285870;19;20039;-69
2022/01/14 21:01:00;;;;;;;19.25;8.20;;;;;;;5.48;100.00;103162.81;15273633;19;20038;-67
2022/01/14 21:06:01;;;;;;;16.40;8.00;;;;;;;5.48;100.00;103156.72;15278063;19;20018;-69
2022/01/14 21:11:03;;;;;;;41.60;21.17;;;;;;;5.44;100.00;103165.97;15278348;19;20018;-69
2022/01/14 21:16:05;;;;;;;17.42;10.05;;;;;;;5.43;100.00;103169.34;15280690;19;20460;-69
2022/01/14 21:21:07;;;;;;;18.10;8.73;;;;;;;5.47;100.00;103160.09;15277920;19;20018;-69
2022/01/14 21:26:09;;;;;;;10.18;5.65;;;;;;;5.38;100.00;103157.72;15282871;19;20917;-69
2022/01/14 21:31:10;;;;;;;10.60;4.90;;;;;;;5.38;100.00;103159.41;15271676;19;20033;-69
2022/01/14 21:36:12;;;;;;;10.60;4.80;;;;;;;5.35;100.00;103166.97;15279166;19;20061;-69
2022/01/14 21:41:14;;;;;;;12.93;4.57;;;;;;;5.31;100.00;103143.38;15277176;19;20386;-69
2022/01/14 21:46:16;;;;;;;9.50;4.25;;;;;;;5.32;100.00;103157.25;15278349;19;20014;-69
2022/01/14 21:51:20;;;;;;;8.93;3.47;;;;;;;5.27;100.00;103156.91;15274272;19;20015;-69
2022/01/14 21:56:22;;;;;;;10.43;4.30;;;;;;;5.24;100.00;103160.94;15282391;19;20405;-69
2022/01/14 22:01:24;;;;;;;11.85;3.90;;;;;;;5.25;100.00;103160.16;15278899;19;20015;-67
2022/01/14 22:06:27;;;;;;;10.35;3.17;;;;;;;5.23;100.00;103159.16;15280345;19;20022;-69
2022/01/14 22:11:29;;;;;;;10.77;3.65;;;;;;;5.22;100.00;103153.03;15277618;19;20011;-69
2022/01/14 22:16:30;;;;;;;13.20;3.63;;;;;;;5.18;100.00;103151.00;15279119;19;20015;-69
2022/01/14 22:21:32;;;;;;;13.70;3.75;;;;;;;5.17;100.00;103148.28;15278731;19;20006;-69
2022/01/14 22:26:34;;;;;;;8.93;3.42;;;;;;;5.16;100.00;103136.06;15264539;19;20106;-69
2022/01/14 22:31:36;;;;;;;10.65;3.70;;;;;;;5.15;100.00;103135.19;15266155;19;20010;-69
2022/01/14 22:36:38;;;;;;;11.80;3.85;;;;;;;5.13;100.00;103126.34;15277082;19;20475;-68
2022/01/14 22:41:39;;;;;;;10.02;3.33;;;;;;;5.06;100.00;103124.06;15277409;19;20534;-68
2022/01/14 22:46:42;;;;;;;10.48;3.55;;;;;;;5.04;100.00;103128.25;15276624;19;20078;-69
2022/01/14 22:51:44;;;;;;;14.40;2.92;;;;;;;5.07;100.00;103123.28;15275604;19;20090;-69
2022/01/14 22:56:46;;;;;;;10.73;3.03;;;;;;;4.94;100.00;103129.25;15278804;19;20014;-69
2022/01/14 23:01:49;;;;;;;12.23;3.53;;;;;;;4.87;100.00;103113.97;15274842;19;20006;-69
2022/01/14 23:06:50;;;;;;;18.08;4.10;;;;;;;4.85;100.00;103133.69;15271313;19;20054;-68
2022/01/14 23:11:53;;;;;;;9.13;2.67;;;;;;;4.85;100.00;103131.09;15269592;19;20018;-68
2022/01/14 23:16:55;;;;;;;12.18;2.90;;;;;;;4.84;100.00;103118.91;15267702;19;20040;-68
2022/01/14 23:21:57;;;;;;;6.55;2.70;;;;;;;4.82;100.00;103112.69;15268682;19;20015;-69
2022/01/14 23:27:03;;;;;;;7.20;3.00;;;;;;;4.74;100.00;103105.22;15267315;19;20424;-69
2022/01/14 23:32:05;;;;;;;9.20;3.38;;;;;;;4.70;100.00;103110.03;15267884;19;20078;-68